Time;durP1;ratioP1;P1;durP2;ratioP2;P2;SDS_P1;SDS_P2;PMS_P1;PMS_P2;Temp;Humidity;BMP_temperature;BMP_pressure;BME280_temperature;BME280_humidity;BME280_pressure;Samples;Min_cycle;Max_cycle;Signal;HPM_P1;HPM_P2
2023/07/20 00:01:45;;;;;;;0.27;0.27;;;16.20;99.90;;;;;;5094730;28;20384;-70
2023/07/20 00:04:13;;;;;;;0.20;0.20;;;16.30;99.90;;;;;;5094769;28;20270;-70
2023/07/20 00:06:40;;;;;;;0.30;0.30;;;16.30;99.90;;;;;;5094491;28;20040;-70
2023/07/20 00:09:06;;;;;;;0.30;0.30;;;16.30;99.90;;;;;;5094605;28;20100;-70
2023/07/20 00:11:35;;;;;;;0.30;0.30;;;16.30;99.90;;;;;;5094575;28;20605;-70
2023/07/20 00:14:00;;;;;;;0.30;0.30;;;16.30;99.90;;;;;;5094528;28;20386;-70
2023/07/20 00:16:26;;;;;;;0.40;0.40;;;16.30;99.90;;;;;;5094737;28;20036;-70
2023/07/20 00:18:52;;;;;;;0.30;0.30;;;16.30;99.90;;;;;;5094178;28;20051;-70
2023/07/20 00:21:17;;;;;;;0.30;0.30;;;16.20;99.90;;;;;;5094375;28;20047;-70
2023/07/20 00:23:43;;;;;;;0.30;0.30;;;16.20;99.90;;;;;;5094048;28;20028;-70
2023/07/20 00:26:09;;;;;;;0.30;0.30;;;16.20;99.90;;;;;;5094178;28;20083;-70
2023/07/20 00:28:34;;;;;;;0.30;0.30;;;16.20;99.90;;;;;;5094262;28;20468;-70
2023/07/20 00:31:00;;;;;;;0.30;0.30;;;16.10;99.90;;;;;;5094439;28;20353;-70
2023/07/20 00:33:26;;;;;;;0.63;0.47;;;16.10;99.90;;;;;;5094598;28;20047;-70
2023/07/20 00:35:52;;;;;;;0.30;0.30;;;16.10;99.90;;;;;;5094148;28;20278;-70
2023/07/20 00:38:18;;;;;;;0.30;0.30;;;16.10;99.90;;;;;;5094091;28;20067;-69
2023/07/20 00:40:43;;;;;;;0.30;0.30;;;16.10;99.90;;;;;;5094074;28;20093;-69
2023/07/20 00:43:09;;;;;;;0.30;0.30;;;16.10;99.90;;;;;;5094002;28;20084;-70
2023/07/20 00:45:36;;;;;;;0.30;0.30;;;16.10;99.90;;;;;;5094091;28;20036;-70
2023/07/20 00:48:03;;;;;;;0.20;0.20;;;16.10;99.90;;;;;;5093993;28;20441;-69
2023/07/20 00:50:30;;;;;;;0.30;0.30;;;16.10;99.90;;;;;;5093873;28;20357;-70
2023/07/20 00:52:56;;;;;;;;;;;16.10;99.90;;;;;;5094335;28;20044;-70
2023/07/20 00:55:23;;;;;;;0.80;0.30;;;16.00;99.90;;;;;;5093815;28;19920;-70
2023/07/20 00:57:50;;;;;;;0.20;0.20;;;16.00;99.90;;;;;;5093621;28;20535;-69
2023/07/20 01:00:16;;;;;;;0.30;0.30;;;16.00;99.90;;;;;;5093790;28;20047;-70
2023/07/20 01:02:41;;;;;;;0.30;0.30;;;16.00;99.90;;;;;;5093777;28;20047;-70
2023/07/20 01:05:08;;;;;;;0.30;0.30;;;16.00;99.90;;;;;;5093665;28;20274;-70
2023/07/20 01:07:43;;;;;;;0.30;0.30;;;16.00;99.90;;;;;;5094335;28;20494;-69
2023/07/20 01:10:20;;;;;;;0.35;0.30;;;15.90;99.90;;;;;;5093725;28;20044;-70
2023/07/20 01:12:52;;;;;;;0.30;0.30;;;15.90;99.90;;;;;;5093705;28;20075;-70
2023/07/20 01:15:18;;;;;;;0.30;0.30;;;15.90;99.90;;;;;;5093497;28;20040;-69
2023/07/20 01:17:44;;;;;;;0.30;0.30;;;15.90;99.90;;;;;;5093415;28;20048;-69
2023/07/20 01:20:13;;;;;;;0.40;0.40;;;15.90;99.90;;;;;;5093686;28;20148;-70
2023/07/20 01:22:51;;;;;;;0.30;0.30;;;15.90;99.90;;;;;;5093582;28;20467;-70
2023/07/20 01:25:49;;;;;;;0.30;0.30;;;15.90;99.90;;;;;;5093865;28;20047;-70
2023/07/20 01:28:45;;;;;;;0.30;0.30;;;15.90;99.90;;;;;;5093531;28;20039;-70
2023/07/20 01:31:20;;;;;;;0.30;0.30;;;15.90;99.90;;;;;;5093814;28;20043;-70
2023/07/20 01:33:47;;;;;;;0.30;0.30;;;15.80;99.90;;;;;;5093736;28;20044;-69
2023/07/20 01:36:15;;;;;;;0.32;0.32;;;15.90;99.90;;;;;;5093533;28;20044;-70
2023/07/20 01:38:42;;;;;;;0.30;0.30;;;15.80;99.90;;;;;;5093380;28;20036;-70
2023/07/20 01:41:08;;;;;;;;;;;15.80;99.90;;;;;;5094273;28;20134;-70
2023/07/20 01:43:34;;;;;;;0.30;0.30;;;15.80;99.90;;;;;;5092168;28;20383;-70
2023/07/20 01:45:59;;;;;;;0.30;0.30;;;15.80;99.90;;;;;;5093431;28;20367;-70
2023/07/20 01:48:25;;;;;;;0.30;0.30;;;15.60;99.90;;;;;;5093322;28;20039;-70
2023/07/20 01:50:51;;;;;;;0.30;0.30;;;15.70;99.90;;;;;;5093427;28;20032;-70
2023/07/20 01:53:16;;;;;;;0.30;0.30;;;15.70;99.90;;;;;;5093149;28;20036;-70
2023/07/20 01:55:42;;;;;;;0.20;0.20;;;15.60;99.90;;;;;;5093253;28;20101;-70
2023/07/20 01:58:07;;;;;;;0.30;0.30;;;15.60;99.90;;;;;;5093439;28;20075;-70
2023/07/20 02:00:33;;;;;;;0.30;0.30;;;15.70;99.90;;;;;;5093446;28;20456;-70
2023/07/20 02:02:59;;;;;;;0.30;0.30;;;15.60;99.90;;;;;;5093379;28;20040;-70
2023/07/20 02:05:25;;;;;;;0.30;0.30;;;15.60;99.90;;;;;;5093186;28;20044;-69
2023/07/20 02:07:51;;;;;;;0.30;0.30;;;15.50;99.90;;;;;;5093096;28;20036;-70
2023/07/20 02:10:17;;;;;;;0.57;0.57;;;15.50;99.90;;;;;;5094645;28;20040;-70
2023/07/20 02:12:42;;;;;;;0.40;0.40;;;15.50;99.90;;;;;;5096847;28;20079;-70
2023/07/20 02:15:09;;;;;;;0.30;0.30;;;15.50;99.90;;;;;;5096929;28;20120;-70
2023/07/20 02:17:34;;;;;;;0.30;0.30;;;15.40;99.90;;;;;;5096847;28;20079;-70
2023/07/20 02:20:00;;;;;;;0.30;0.30;;;15.40;99.90;;;;;;5096426;28;20144;-70
2023/07/20 02:22:25;;;;;;;0.30;0.30;;;15.30;99.90;;;;;;5096623;28;20039;-70
2023/07/20 02:24:51;;;;;;;0.40;0.40;;;15.20;99.90;;;;;;5097053;28;20035;-70
2023/07/20 02:27:17;;;;;;;0.30;0.30;;;15.10;99.90;;;;;;5096536;28;20472;-70
2023/07/20 02:29:42;;;;;;;0.30;0.30;;;15.10;99.90;;;;;;5096539;28;20044;-70
2023/07/20 02:32:11;;;;;;;0.30;0.30;;;15.10;99.90;;;;;;5096485;28;20097;-69
2023/07/20 02:34:37;;;;;;;0.30;0.30;;;15.00;99.90;;;;;;5096224;28;20437;-70
2023/07/20 02:37:03;;;;;;;0.30;0.30;;;15.00;99.90;;;;;;5096318;28;20079;-70
2023/07/20 02:39:28;;;;;;;0.30;0.30;;;14.90;99.90;;;;;;5096333;28;20098;-70
2023/07/20 02:41:54;;;;;;;0.30;0.30;;;14.90;99.90;;;;;;5096303;28;20123;-69
2023/07/20 02:44:20;;;;;;;0.30;0.30;;;14.80;99.90;;;;;;5096006;28;20040;-70
2023/07/20 02:46:46;;;;;;;0.40;0.40;;;14.70;99.90;;;;;;5096087;28;20046;-70
2023/07/20 02:49:12;;;;;;;0.30;0.30;;;14.70;99.90;;;;;;5095867;28;20424;-70
2023/07/20 02:51:37;;;;;;;0.30;0.30;;;14.70;99.90;;;;;;5096094;28;20282;-70
2023/07/20 02:54:03;;;;;;;0.30;0.30;;;14.60;99.90;;;;;;5095804;28;20036;-70
2023/07/20 02:56:29;;;;;;;0.30;0.30;;;14.60;99.90;;;;;;5095139;28;20518;-70
2023/07/20 02:58:54;;;;;;;0.30;0.30;;;14.70;99.90;;;;;;5095094;28;20082;-69
2023/07/20 03:01:20;;;;;;;0.30;0.30;;;14.60;99.90;;;;;;5096032;28;20040;-70
2023/07/20 03:03:47;;;;;;;0.30;0.30;;;14.70;99.90;;;;;;5095964;28;20036;-70
2023/07/20 03:06:16;;;;;;;0.45;0.45;;;14.60;99.90;;;;;;5095767;28;20498;-70
2023/07/20 03:08:47;;;;;;;0.30;0.30;;;14.60;99.90;;;;;;5096209;28;20499;-71
2023/07/20 03:11:16;;;;;;;0.30;0.30;;;14.60;99.90;;;;;;5095648;28;20044;-70
2023/07/20 03:13:42;;;;;;;0.30;0.30;;;14.50;99.90;;;;;;5095829;28;20098;-70
2023/07/20 03:16:11;;;;;;;0.30;0.30;;;14.50;99.90;;;;;;5095647;28;20435;-70
2023/07/20 03:18:39;;;;;;;0.30;0.30;;;14.50;99.90;;;;;;5095371;28;20048;-70
2023/07/20 03:21:07;;;;;;;0.30;0.30;;;14.40;99.90;;;;;;5094774;28;20050;-69
2023/07/20 03:23:33;;;;;;;0.32;0.32;;;14.40;99.90;;;;;;5095500;28;20063;-70
2023/07/20 03:25:58;;;;;;;0.30;0.30;;;14.30;99.90;;;;;;5095339;28;20093;-71
2023/07/20 03:28:26;;;;;;;0.30;0.30;;;14.30;99.90;;;;;;5095394;28;20035;-70
2023/07/20 03:30:56;;;;;;;0.30;0.30;;;14.30;99.90;;;;;;5095275;28;20043;-70
2023/07/20 03:33:25;;;;;;;0.30;0.30;;;14.20;99.90;;;;;;5095281;28;20418;-70
2023/07/20 03:35:50;;;;;;;0.35;0.35;;;14.20;99.90;;;;;;5095154;28;20036;-70
2023/07/20 03:38:16;;;;;;;0.30;0.30;;;14.10;99.90;;;;;;5095257;28;20078;-70
2023/07/20 03:41:02;;;;;;;0.30;0.30;;;14.10;99.90;;;;;;5095156;28;20046;-70
2023/07/20 03:43:28;;;;;;;0.47;0.40;;;14.00;99.90;;;;;;5094889;28;20134;-70
2023/07/20 03:45:54;;;;;;;0.30;0.30;;;14.10;99.90;;;;;;5094737;28;20075;-70
2023/07/20 03:48:21;;;;;;;0.30;0.30;;;14.00;99.90;;;;;;5094971;28;20032;-70
2023/07/20 03:50:48;;;;;;;0.30;0.30;;;14.00;99.90;;;;;;5095577;28;20116;-70
2023/07/20 03:53:17;;;;;;;0.30;0.30;;;14.00;99.90;;;;;;5094859;28;20127;-70
2023/07/20 03:55:47;;;;;;;0.40;0.40;;;13.90;99.90;;;;;;5094882;28;20130;-70
2023/07/20 03:58:14;;;;;;;0.30;0.30;;;13.90;99.90;;;;;;5094754;28;20396;-70
2023/07/20 04:00:40;;;;;;;0.40;0.40;;;13.90;99.90;;;;;;5094729;28;20079;-70
2023/07/20 04:03:06;;;;;;;0.30;0.30;;;14.00;99.90;;;;;;5094817;28;20040;-70
2023/07/20 04:05:31;;;;;;;0.50;0.50;;;13.90;99.90;;;;;;5094691;28;20043;-70
2023/07/20 04:07:59;;;;;;;0.60;0.60;;;13.90;99.90;;;;;;5094484;28;20036;-70
2023/07/20 04:10:24;;;;;;;0.40;0.40;;;13.80;99.90;;;;;;5094541;28;20066;-71
2023/07/20 04:12:50;;;;;;;0.37;0.37;;;13.80;99.90;;;;;;5094580;28;20046;-70
2023/07/20 04:15:16;;;;;;;0.30;0.30;;;13.80;99.90;;;;;;5093205;28;20124;-70
2023/07/20 04:17:41;;;;;;;0.50;0.50;;;13.90;99.90;;;;;;5094230;28;20044;-70
2023/07/20 04:20:08;;;;;;;0.40;0.40;;;13.90;99.90;;;;;;5094429;28;20048;-70
2023/07/20 04:22:34;;;;;;;0.30;0.30;;;13.90;99.90;;;;;;5093747;28;20043;-70
2023/07/20 04:24:59;;;;;;;0.40;0.40;;;13.90;99.90;;;;;;5094075;28;20572;-70
2023/07/20 04:27:26;;;;;;;0.30;0.30;;;13.80;99.90;;;;;;5094248;28;20380;-70
2023/07/20 04:29:51;;;;;;;0.30;0.30;;;13.80;99.90;;;;;;5094272;28;20048;-70
2023/07/20 04:32:17;;;;;;;0.40;0.40;;;13.80;99.90;;;;;;5093625;28;20472;-70
2023/07/20 04:34:43;;;;;;;0.30;0.30;;;13.80;99.90;;;;;;5094041;28;20040;-70
2023/07/20 04:37:09;;;;;;;0.47;0.47;;;13.70;99.90;;;;;;5094244;28;20047;-71
2023/07/20 04:39:34;;;;;;;0.40;0.40;;;13.80;99.90;;;;;;5093818;28;20123;-70
2023/07/20 04:42:00;;;;;;;0.30;0.30;;;13.80;99.90;;;;;;5094354;28;20040;-70
2023/07/20 04:44:26;;;;;;;0.30;0.30;;;13.70;99.90;;;;;;5094065;28;20040;-69
2023/07/20 04:46:51;;;;;;;0.38;0.38;;;13.80;99.90;;;;;;5093948;28;20051;-70
2023/07/20 04:49:17;;;;;;;0.40;0.40;;;13.80;99.90;;;;;;5093966;28;20376;-70
2023/07/20 04:51:42;;;;;;;0.60;0.60;;;13.80;99.90;;;;;;5093912;28;20468;-70
2023/07/20 04:54:08;;;;;;;0.40;0.40;;;13.80;99.90;;;;;;5094138;28;20043;-70
2023/07/20 04:56:34;;;;;;;0.30;0.30;;;13.70;99.90;;;;;;5093907;28;20043;-70
2023/07/20 04:58:59;;;;;;;0.80;0.43;;;13.70;99.90;;;;;;5093870;28;20042;-69
2023/07/20 05:01:26;;;;;;;0.50;0.50;;;13.80;99.90;;;;;;5093779;28;20125;-70
2023/07/20 05:03:52;;;;;;;0.35;0.35;;;13.80;99.90;;;;;;5093792;28;20055;-70
2023/07/20 05:06:18;;;;;;;0.47;0.47;;;13.80;99.90;;;;;;5093518;28;20044;-69
2023/07/20 05:08:44;;;;;;;0.40;0.40;;;13.70;99.90;;;;;;5093894;28;20170;-69
2023/07/20 05:11:11;;;;;;;0.30;0.30;;;13.80;99.90;;;;;;5093935;28;20040;-70
2023/07/20 05:13:37;;;;;;;;;;;13.80;99.90;;;;;;5094064;28;20047;-69
2023/07/20 05:16:03;;;;;;;0.40;0.40;;;13.80;99.90;;;;;;5093529;28;20002;-69
2023/07/20 05:18:28;;;;;;;0.40;0.40;;;13.80;99.90;;;;;;5093211;28;20090;-69
2023/07/20 05:20:55;;;;;;;0.30;0.30;;;13.80;99.90;;;;;;5094177;28;20042;-70
2023/07/20 05:23:21;;;;;;;0.40;0.40;;;13.90;99.90;;;;;;5093941;28;20101;-70
2023/07/20 05:25:47;;;;;;;0.40;0.40;;;13.80;99.90;;;;;;5093442;28;20331;-71
2023/07/20 05:28:13;;;;;;;0.30;0.30;;;13.90;99.90;;;;;;5093589;28;20531;-71
2023/07/20 05:30:39;;;;;;;0.30;0.30;;;13.90;99.90;;;;;;5093110;28;20127;-70
2023/07/20 05:33:05;;;;;;;;;;;13.90;99.90;;;;;;5093792;28;20044;-71
2023/07/20 05:35:31;;;;;;;0.38;0.38;;;13.90;99.90;;;;;;5093292;28;19969;-71
2023/07/20 05:37:56;;;;;;;0.40;0.40;;;14.10;99.90;;;;;;5093496;28;20044;-70
2023/07/20 05:40:26;;;;;;;0.40;0.40;;;14.20;99.90;;;;;;5093290;28;20483;-72
2023/07/20 05:42:53;;;;;;;0.40;0.40;;;14.30;99.90;;;;;;5092810;28;20036;-72
2023/07/20 05:45:20;;;;;;;0.40;0.40;;;14.50;99.90;;;;;;5094215;28;20040;-70
2023/07/20 05:47:46;;;;;;;0.40;0.40;;;14.70;99.90;;;;;;5096774;28;20114;-71
2023/07/20 05:50:12;;;;;;;0.30;0.30;;;14.90;99.90;;;;;;5097770;28;20044;-70
2023/07/20 05:52:38;;;;;;;0.30;0.30;;;15.10;99.90;;;;;;5097642;28;20471;-71
2023/07/20 05:55:05;;;;;;;0.30;0.30;;;15.40;99.90;;;;;;5097311;28;20082;-71
2023/07/20 05:57:31;;;;;;;0.30;0.30;;;15.60;99.90;;;;;;5096120;28;20036;-71
2023/07/20 05:59:56;;;;;;;1.40;0.50;;;15.90;99.90;;;;;;5097066;28;20042;-70
2023/07/20 06:02:22;;;;;;;0.30;0.30;;;16.10;99.90;;;;;;5097488;28;20039;-72
2023/07/20 06:04:48;;;;;;;0.30;0.30;;;16.40;99.90;;;;;;5097040;28;20040;-72
2023/07/20 06:07:13;;;;;;;0.30;0.30;;;16.60;99.90;;;;;;5096899;28;20044;-75
2023/07/20 06:09:39;;;;;;;0.30;0.30;;;16.80;99.90;;;;;;5097272;28;20036;-76
2023/07/20 06:12:06;;;;;;;0.30;0.30;;;17.00;99.90;;;;;;5097140;28;20032;-72
2023/07/20 06:14:31;;;;;;;0.20;0.20;;;17.30;99.90;;;;;;5096852;28;20036;-74
2023/07/20 06:16:57;;;;;;;0.30;0.30;;;17.40;99.90;;;;;;5096685;28;20054;-76
2023/07/20 06:19:22;;;;;;;0.30;0.30;;;17.50;99.90;;;;;;5097005;28;20127;-76
2023/07/20 06:21:49;;;;;;;0.30;0.30;;;17.70;99.90;;;;;;5096741;28;20039;-77
2023/07/20 06:24:16;;;;;;;0.30;0.30;;;17.80;99.90;;;;;;5096682;28;20088;-72
2023/07/20 06:26:42;;;;;;;;;;;18.00;99.90;;;;;;5096735;28;20492;-73
2023/07/20 06:29:08;;;;;;;0.52;0.47;;;18.10;99.90;;;;;;5096435;28;19923;-72
2023/07/20 06:31:34;;;;;;;;;;;18.20;99.90;;;;;;5097326;28;20054;-72
2023/07/20 06:34:00;;;;;;;0.30;0.30;;;18.20;99.90;;;;;;5096410;28;20356;-72
2023/07/20 06:36:26;;;;;;;0.35;0.35;;;18.20;99.90;;;;;;5096666;28;20044;-72
2023/07/20 06:38:52;;;;;;;0.30;0.30;;;18.20;99.90;;;;;;5096421;28;20048;-73
2023/07/20 06:41:18;;;;;;;0.30;0.30;;;18.10;99.90;;;;;;5096390;28;20372;-71
2023/07/20 06:43:44;;;;;;;0.20;0.20;;;18.10;99.90;;;;;;5096249;28;20038;-71
2023/07/20 06:46:10;;;;;;;0.30;0.30;;;18.10;99.90;;;;;;5096246;28;20044;-73
2023/07/20 06:48:36;;;;;;;0.60;0.50;;;18.10;99.90;;;;;;5094931;28;20074;-70
2023/07/20 06:51:02;;;;;;;0.30;0.30;;;18.20;99.90;;;;;;5096294;28;20051;-70
2023/07/20 06:53:28;;;;;;;0.30;0.30;;;18.20;99.90;;;;;;5096077;28;20094;-70
2023/07/20 06:55:56;;;;;;;0.30;0.30;;;18.30;99.90;;;;;;5095905;28;20521;-71
2023/07/20 06:58:22;;;;;;;0.20;0.20;;;18.40;99.90;;;;;;5095975;28;20043;-72
2023/07/20 07:00:48;;;;;;;0.30;0.30;;;18.40;99.90;;;;;;5096457;28;20112;-70
2023/07/20 07:03:14;;;;;;;0.20;0.20;;;18.60;99.90;;;;;;5095944;28;20123;-76
2023/07/20 07:05:39;;;;;;;0.30;0.30;;;18.70;99.90;;;;;;5095895;28;20127;-70
2023/07/20 07:08:05;;;;;;;0.20;0.20;;;18.80;99.90;;;;;;5095396;28;20044;-70
2023/07/20 07:10:31;;;;;;;0.40;0.33;;;18.90;99.90;;;;;;5095819;28;20036;-71
2023/07/20 07:12:57;;;;;;;0.40;0.40;;;19.00;99.90;;;;;;5095728;28;20036;-70
2023/07/20 07:15:22;;;;;;;0.30;0.30;;;18.90;99.90;;;;;;5095476;28;20614;-69
2023/07/20 07:17:48;;;;;;;0.30;0.30;;;18.90;99.90;;;;;;5095620;28;20044;-69
2023/07/20 07:20:14;;;;;;;0.40;0.40;;;18.90;99.90;;;;;;5095517;28;20467;-69
2023/07/20 07:22:39;;;;;;;0.30;0.30;;;18.90;99.90;;;;;;5095636;28;20077;-69
2023/07/20 07:25:07;;;;;;;0.30;0.30;;;18.90;99.90;;;;;;5095572;28;20050;-70
2023/07/20 07:27:33;;;;;;;0.30;0.30;;;18.80;99.90;;;;;;5094149;28;20194;-68
2023/07/20 07:29:58;;;;;;;0.50;0.50;;;18.80;99.90;;;;;;5095432;28;20131;-68
2023/07/20 07:32:24;;;;;;;0.23;0.23;;;18.70;99.90;;;;;;5095885;28;20119;-69
2023/07/20 07:34:50;;;;;;;0.22;0.22;;;18.60;99.90;;;;;;5095162;28;20075;-69
2023/07/20 07:37:17;;;;;;;0.30;0.30;;;18.60;99.90;;;;;;5095285;28;20080;-68
2023/07/20 07:39:42;;;;;;;;;;;18.60;99.90;;;;;;5095761;28;20093;-69
2023/07/20 07:42:08;;;;;;;0.30;0.30;;;18.60;99.90;;;;;;5094898;28;19916;-69
2023/07/20 07:44:33;;;;;;;0.30;0.30;;;18.60;99.90;;;;;;5095017;28;20460;-68
2023/07/20 07:46:59;;;;;;;0.30;0.30;;;18.80;99.90;;;;;;5095043;28;20436;-69
2023/07/20 07:49:25;;;;;;;0.30;0.30;;;19.10;99.90;;;;;;5094851;28;20368;-69
2023/07/20 07:51:50;;;;;;;0.30;0.30;;;19.20;99.90;;;;;;5094810;28;20048;-70
2023/07/20 07:54:16;;;;;;;0.30;0.30;;;19.40;99.90;;;;;;5095093;28;20040;-70
2023/07/20 07:56:44;;;;;;;0.27;0.27;;;19.50;99.90;;;;;;5094950;28;20360;-69
2023/07/20 07:59:09;;;;;;;0.30;0.30;;;19.50;99.90;;;;;;5094681;28;20589;-70
2023/07/20 08:01:35;;;;;;;0.30;0.30;;;19.50;99.90;;;;;;5094719;28;20044;-68
2023/07/20 08:04:00;;;;;;;0.30;0.30;;;19.50;99.90;;;;;;5094462;28;20040;-69
2023/07/20 08:06:26;;;;;;;0.30;0.30;;;19.30;99.90;;;;;;5094405;28;20480;-69
2023/07/20 08:08:52;;;;;;;0.30;0.30;;;19.40;99.90;;;;;;5075860;28;20072;-69
2023/07/20 08:11:18;;;;;;;0.30;0.30;;;19.60;99.90;;;;;;5094556;28;20040;-72
2023/07/20 08:13:43;;;;;;;0.20;0.20;;;19.70;99.90;;;;;;5094547;28;20041;-72
2023/07/20 08:16:09;;;;;;;0.30;0.30;;;19.80;99.90;;;;;;5094742;28;20536;-72
2023/07/20 08:18:35;;;;;;;0.30;0.30;;;19.80;99.90;;;;;;5094552;28;20112;-71
2023/07/20 08:21:00;;;;;;;0.20;0.20;;;19.70;99.90;;;;;;5094233;28;20097;-72
2023/07/20 08:23:27;;;;;;;0.30;0.30;;;19.70;99.90;;;;;;5094547;28;20461;-71
2023/07/20 08:25:53;;;;;;;;;;;19.90;99.90;;;;;;5094821;28;20361;-73
2023/07/20 08:28:18;;;;;;;0.30;0.30;;;20.10;99.90;;;;;;5094246;28;19923;-73
2023/07/20 08:30:46;;;;;;;0.23;0.23;;;20.10;99.90;;;;;;5093938;28;20075;-72
2023/07/20 08:33:18;;;;;;;0.28;0.28;;;20.00;99.90;;;;;;5094159;28;20090;-73
2023/07/20 08:35:43;;;;;;;0.20;0.20;;;20.00;99.90;;;;;;5094121;28;20464;-73
2023/07/20 08:38:09;;;;;;;0.20;0.20;;;20.00;99.90;;;;;;5094157;28;20172;-72
2023/07/20 08:40:40;;;;;;;0.27;0.27;;;20.10;99.90;;;;;;5094071;28;20037;-72
2023/07/20 08:43:06;;;;;;;0.20;0.20;;;20.30;99.90;;;;;;5094271;28;20036;-72
2023/07/20 08:45:33;;;;;;;0.30;0.30;;;20.40;99.90;;;;;;5094076;28;20054;-72
2023/07/20 08:48:00;;;;;;;0.30;0.30;;;20.30;99.90;;;;;;5093524;28;20040;-72
2023/07/20 08:50:28;;;;;;;;;;;20.20;99.90;;;;;;5094389;28;20093;-71
2023/07/20 08:52:58;;;;;;;0.22;0.22;;;20.00;99.90;;;;;;5094028;28;19923;-73
2023/07/20 08:55:25;;;;;;;0.32;0.32;;;19.70;99.90;;;;;;5093601;28;20044;-72
2023/07/20 08:57:54;;;;;;;0.20;0.20;;;19.50;99.90;;;;;;5093205;28;20047;-72
2023/07/20 09:00:21;;;;;;;0.30;0.30;;;19.50;99.90;;;;;;5093810;28;20044;-72
2023/07/20 09:02:52;;;;;;;0.20;0.20;;;19.60;99.90;;;;;;5093909;28;20055;-72
2023/07/20 09:05:23;;;;;;;0.20;0.20;;;19.80;99.90;;;;;;5093781;28;20032;-72
2023/07/20 09:07:49;;;;;;;0.30;0.30;;;20.10;99.90;;;;;;5093845;28;20082;-73
2023/07/20 09:10:15;;;;;;;0.30;0.30;;;20.30;99.90;;;;;;5093583;28;20044;-73
2023/07/20 09:12:44;;;;;;;0.23;0.23;;;20.50;99.90;;;;;;5093690;28;20036;-73
2023/07/20 09:15:11;;;;;;;0.20;0.20;;;20.60;99.90;;;;;;5093592;28;20044;-73
2023/07/20 09:17:40;;;;;;;0.40;0.30;;;20.60;99.90;;;;;;5093059;28;20131;-72
2023/07/20 09:20:10;;;;;;;0.30;0.30;;;20.70;99.90;;;;;;5096527;28;20044;-73
2023/07/20 09:22:40;;;;;;;0.30;0.30;;;20.70;99.90;;;;;;5097561;28;20036;-73
2023/07/20 09:25:11;;;;;;;0.30;0.30;;;20.60;99.90;;;;;;5097763;28;20543;-73
2023/07/20 09:27:40;;;;;;;0.30;0.30;;;20.40;99.90;;;;;;5096501;28;20066;-75
2023/07/20 09:30:08;;;;;;;0.30;0.30;;;20.30;99.90;;;;;;5097819;28;20353;-71
2023/07/20 09:32:40;;;;;;;0.22;0.22;;;20.20;99.90;;;;;;5097598;28;20119;-72
2023/07/20 09:35:06;;;;;;;0.30;0.30;;;20.30;99.90;;;;;;5097557;28;20039;-73
2023/07/20 09:37:33;;;;;;;0.30;0.30;;;20.30;99.90;;;;;;5097623;28;20040;-70
2023/07/20 09:39:59;;;;;;;0.30;0.30;;;20.40;99.90;;;;;;5097495;28;20035;-70
2023/07/20 09:42:26;;;;;;;0.30;0.30;;;20.50;99.90;;;;;;5097514;28;20051;-71
2023/07/20 09:44:52;;;;;;;0.30;0.30;;;20.60;99.90;;;;;;5097962;28;20137;-71
2023/07/20 09:47:22;;;;;;;0.20;0.20;;;20.70;99.90;;;;;;5097336;28;20047;-69
2023/07/20 09:49:48;;;;;;;0.30;0.30;;;20.60;99.90;;;;;;5097298;28;20047;-69
2023/07/20 09:52:15;;;;;;;0.30;0.30;;;20.70;99.90;;;;;;5097320;28;20046;-70
2023/07/20 09:54:44;;;;;;;0.20;0.20;;;20.60;99.90;;;;;;5096938;28;20383;-70
2023/07/20 09:57:13;;;;;;;0.20;0.20;;;20.70;99.90;;;;;;5097214;28;20115;-71
2023/07/20 09:59:39;;;;;;;0.20;0.20;;;20.70;99.90;;;;;;5097077;28;20028;-70
2023/07/20 10:02:14;;;;;;;0.40;0.33;;;20.80;99.90;;;;;;5097095;28;20043;-70
2023/07/20 10:04:41;;;;;;;0.30;0.30;;;20.80;99.90;;;;;;5096966;28;20476;-70
2023/07/20 10:07:11;;;;;;;1.15;0.57;;;20.60;99.90;;;;;;5096892;28;20042;-72
2023/07/20 10:09:40;;;;;;;0.30;0.30;;;20.60;99.90;;;;;;5097328;28;20123;-71
2023/07/20 10:12:07;;;;;;;0.55;0.30;;;20.80;99.90;;;;;;5096910;28;20472;-71
2023/07/20 10:14:38;;;;;;;0.20;0.20;;;20.90;99.90;;;;;;5096976;28;20152;-70
2023/07/20 10:17:05;;;;;;;0.20;0.20;;;21.00;99.90;;;;;;5096854;28;20047;-71
2023/07/20 10:19:44;;;;;;;0.20;0.20;;;21.10;99.90;;;;;;5097282;28;20044;-70
2023/07/20 10:22:16;;;;;;;0.20;0.20;;;21.20;99.90;;;;;;5097141;28;20052;-72
2023/07/20 10:24:46;;;;;;;0.20;0.20;;;21.20;99.90;;;;;;5096706;28;20109;-72
2023/07/20 10:27:13;;;;;;;0.30;0.30;;;21.30;99.90;;;;;;5095905;28;20391;-70
2023/07/20 10:29:41;;;;;;;0.20;0.20;;;21.40;99.90;;;;;;5096256;28;20040;-71
2023/07/20 10:32:08;;;;;;;0.20;0.20;;;21.40;99.90;;;;;;5095801;28;20078;-69
2023/07/20 10:34:34;;;;;;;0.30;0.30;;;21.40;99.90;;;;;;5096473;28;20083;-68
2023/07/20 10:37:00;;;;;;;0.30;0.30;;;21.40;99.90;;;;;;5096432;28;20117;-69
2023/07/20 10:39:27;;;;;;;0.20;0.20;;;21.40;99.90;;;;;;5096574;28;20044;-68
2023/07/20 10:42:10;;;;;;;0.30;0.30;;;21.40;99.90;;;;;;5096335;28;20047;-71
2023/07/20 10:44:44;;;;;;;0.20;0.20;;;21.40;99.90;;;;;;5096774;28;20036;-72
2023/07/20 10:47:11;;;;;;;0.25;0.25;;;21.50;99.90;;;;;;5096395;28;20075;-71
2023/07/20 10:49:58;;;;;;;0.30;0.30;;;21.60;99.90;;;;;;5096238;28;20549;-71
2023/07/20 10:52:23;;;;;;;0.20;0.20;;;21.70;99.90;;;;;;5095090;28;20115;-71
2023/07/20 10:54:49;;;;;;;0.30;0.30;;;21.80;99.90;;;;;;5095965;28;20124;-71
2023/07/20 10:57:24;;;;;;;0.20;0.20;;;22.00;99.90;;;;;;5096060;28;20075;-72
2023/07/20 10:59:49;;;;;;;0.20;0.20;;;22.10;99.90;;;;;;5096046;28;20371;-71
2023/07/20 11:02:19;;;;;;;0.23;0.23;;;22.10;99.90;;;;;;5095949;28;20484;-71
2023/07/20 11:04:46;;;;;;;0.20;0.20;;;22.10;99.90;;;;;;5095883;28;20138;-71
2023/07/20 11:07:17;;;;;;;0.20;0.20;;;22.10;99.90;;;;;;5095719;28;20099;-71
2023/07/20 11:09:43;;;;;;;0.20;0.20;;;22.00;99.90;;;;;;5096223;28;20128;-71
2023/07/20 11:12:14;;;;;;;0.20;0.20;;;22.00;99.90;;;;;;5095841;28;20119;-72
2023/07/20 11:14:53;;;;;;;0.30;0.30;;;21.90;99.90;;;;;;5095558;28;20040;-71
2023/07/20 11:17:22;;;;;;;0.20;0.20;;;21.70;99.90;;;;;;5095639;28;20046;-71
2023/07/20 11:19:55;;;;;;;0.20;0.20;;;21.60;99.90;;;;;;5095596;28;20058;-71
2023/07/20 11:22:21;;;;;;;0.20;0.20;;;21.50;99.90;;;;;;5094442;28;20032;-72
2023/07/20 11:24:49;;;;;;;0.20;0.20;;;21.40;99.90;;;;;;5095475;28;20134;-72
2023/07/20 11:27:15;;;;;;;0.20;0.20;;;21.30;99.90;;;;;;5095749;28;20457;-71
2023/07/20 11:29:40;;;;;;;0.20;0.20;;;21.30;99.90;;;;;;5095424;28;20082;-72
2023/07/20 11:32:07;;;;;;;0.20;0.20;;;21.20;99.90;;;;;;5095464;28;20127;-72
2023/07/20 11:34:35;;;;;;;0.60;0.50;;;21.20;99.90;;;;;;5095197;28;20335;-71
2023/07/20 11:37:01;;;;;;;0.20;0.20;;;21.20;99.90;;;;;;5095300;28;20075;-72
2023/07/20 11:39:27;;;;;;;0.20;0.20;;;21.20;99.90;;;;;;5095272;28;20077;-71
2023/07/20 11:41:54;;;;;;;0.20;0.20;;;21.20;99.90;;;;;;5094893;28;20047;-72
2023/07/20 11:44:27;;;;;;;0.20;0.20;;;21.20;99.90;;;;;;5094524;28;20050;-71
2023/07/20 11:47:10;;;;;;;0.20;0.20;;;21.10;99.90;;;;;;5095066;28;20047;-72
2023/07/20 11:49:43;;;;;;;0.30;0.30;;;21.10;99.90;;;;;;5095227;28;20040;-72
2023/07/20 11:52:11;;;;;;;0.20;0.20;;;21.10;99.90;;;;;;5095243;28;20036;-71
2023/07/20 11:54:39;;;;;;;0.20;0.20;;;21.10;99.90;;;;;;5094978;28;20039;-71
2023/07/20 11:57:05;;;;;;;0.20;0.20;;;21.00;99.90;;;;;;5094916;28;20035;-71
2023/07/20 11:59:31;;;;;;;0.20;0.20;;;21.00;99.90;;;;;;5094820;28;20525;-71
2023/07/20 12:02:02;;;;;;;0.20;0.20;;;21.10;99.90;;;;;;5094575;28;20523;-70
2023/07/20 12:04:28;;;;;;;0.30;0.30;;;21.20;99.90;;;;;;5094767;28;20075;-71
2023/07/20 12:06:57;;;;;;;0.20;0.20;;;21.30;99.90;;;;;;5094537;28;20078;-70
2023/07/20 12:09:23;;;;;;;0.20;0.20;;;21.40;99.90;;;;;;5094730;28;20071;-69
2023/07/20 12:11:50;;;;;;;0.20;0.20;;;21.50;99.90;;;;;;5094654;28;20436;-69
2023/07/20 12:14:16;;;;;;;;;;;21.60;99.90;;;;;;5093587;28;20375;-72
2023/07/20 12:16:41;;;;;;;0.20;0.20;;;21.60;99.90;;;;;;5094657;28;19927;-71
2023/07/20 12:19:09;;;;;;;0.30;0.30;;;21.70;99.90;;;;;;5095075;28;20098;-72
2023/07/20 12:21:37;;;;;;;0.70;0.70;;;21.60;99.90;;;;;;5094405;28;20055;-70
2023/07/20 12:24:04;;;;;;;0.30;0.30;;;21.60;99.90;;;;;;5094310;28;20075;-73
2023/07/20 12:26:31;;;;;;;0.20;0.20;;;21.60;99.90;;;;;;5094348;28;20133;-70
2023/07/20 12:28:57;;;;;;;0.20;0.20;;;21.60;99.90;;;;;;5094328;28;20357;-70
2023/07/20 12:31:25;;;;;;;0.30;0.30;;;21.70;99.90;;;;;;5094283;28;20093;-70
2023/07/20 12:33:51;;;;;;;0.20;0.20;;;21.90;99.90;;;;;;5092042;28;20040;-70
2023/07/20 12:36:17;;;;;;;;;;;21.80;99.90;;;;;;5093253;28;20036;-70
2023/07/20 12:38:43;;;;;;;0.20;0.20;;;21.80;99.90;;;;;;5093006;28;20259;-70
2023/07/20 12:41:13;;;;;;;0.20;0.20;;;21.90;99.90;;;;;;5093723;28;20035;-70
2023/07/20 12:43:38;;;;;;;0.20;0.20;;;21.80;99.90;;;;;;5093139;28;20044;-70
2023/07/20 12:46:04;;;;;;;0.20;0.20;;;21.80;99.90;;;;;;5093883;28;20040;-70
2023/07/20 12:48:30;;;;;;;0.20;0.20;;;21.90;99.90;;;;;;5093211;28;20371;-70
2023/07/20 12:50:56;;;;;;;0.20;0.20;;;22.00;99.90;;;;;;5094187;28;20156;-70